Time;durP1;ratioP1;P1;durP2;ratioP2;P2;SDS_P1;SDS_P2;PMS_P1;PMS_P2;Temp;Humidity;BMP_temperature;BMP_pressure;BME280_temperature;BME280_humidity;BME280_pressure;Samples;Min_cycle;Max_cycle;Signal;HPM_P1;HPM_P2
2021/05/11 00:00:35;;;;;;;0.90;0.57;;;18.50;99.90;;;;;;5030393;28;20420;-86
2021/05/11 00:03:03;;;;;;;1.40;0.70;;;18.50;99.90;;;;;;5012792;28;20386;-86
2021/05/11 00:05:31;;;;;;;0.77;0.50;;;18.50;99.90;;;;;;5012659;28;20373;-84
2021/05/11 00:07:58;;;;;;;1.10;0.70;;;18.60;99.90;;;;;;5030572;28;20385;-84
2021/05/11 00:10:27;;;;;;;0.68;0.38;;;18.70;99.90;;;;;;5030317;28;20861;-85
2021/05/11 00:12:55;;;;;;;2.08;0.50;;;18.80;99.90;;;;;;5011685;28;20394;-85
2021/05/11 00:15:22;;;;;;;3.50;0.77;;;18.80;99.90;;;;;;5030136;28;20443;-86
2021/05/11 00:17:49;;;;;;;0.88;0.50;;;18.80;99.90;;;;;;5007112;28;20788;-86
2021/05/11 00:20:18;;;;;;;1.77;0.63;;;18.90;99.90;;;;;;5012483;28;20488;-87
2021/05/11 00:22:46;;;;;;;1.10;0.43;;;18.90;99.90;;;;;;5030014;28;20394;-86
2021/05/11 00:25:14;;;;;;;1.02;0.40;;;19.00;99.90;;;;;;5012237;28;20377;-85
2021/05/11 00:27:41;;;;;;;0.55;0.50;;;19.10;99.90;;;;;;5012482;28;20468;-85
2021/05/11 00:30:10;;;;;;;1.23;0.23;;;19.10;99.90;;;;;;5029418;28;20428;-86
2021/05/11 00:32:37;;;;;;;1.00;0.50;;;19.00;99.90;;;;;;5010129;28;20398;-85
2021/05/11 00:35:04;;;;;;;1.00;0.50;;;19.00;99.90;;;;;;5009965;28;20887;-86
2021/05/11 00:37:31;;;;;;;1.83;0.60;;;18.90;99.90;;;;;;5010960;28;20435;-84
2021/05/11 00:39:58;;;;;;;0.52;0.40;;;19.00;99.90;;;;;;4991257;28;20921;-83
2021/05/11 00:42:25;;;;;;;3.25;0.50;;;19.00;99.90;;;;;;5009481;28;20383;-84
2021/05/11 00:44:52;;;;;;;0.55;0.45;;;19.00;99.90;;;;;;5010142;28;20382;-84
2021/05/11 00:47:19;;;;;;;0.95;0.40;;;19.00;99.90;;;;;;5010796;28;20395;-84
2021/05/11 00:49:48;;;;;;;1.48;0.50;;;19.10;99.90;;;;;;4992135;28;20403;-84
2021/05/11 00:52:15;;;;;;;0.52;0.38;;;19.20;99.90;;;;;;4992107;28;20445;-85
2021/05/11 00:54:43;;;;;;;0.73;0.40;;;19.30;99.90;;;;;;4992203;28;20935;-85
2021/05/11 00:57:11;;;;;;;1.00;0.40;;;19.40;99.90;;;;;;4992215;28;20476;-84
2021/05/11 00:59:38;;;;;;;1.10;0.40;;;19.60;99.90;;;;;;5014537;28;20861;-86
2021/05/11 01:02:08;;;;;;;0.43;0.37;;;19.50;99.90;;;;;;5013268;28;20417;-85
2021/05/11 01:04:36;;;;;;;2.30;0.40;;;19.30;99.90;;;;;;4996911;28;20445;-84
2021/05/11 01:07:05;;;;;;;0.68;0.28;;;19.20;99.90;;;;;;5021635;28;20398;-85
2021/05/11 01:09:32;;;;;;;1.55;0.75;;;19.10;99.90;;;;;;5005790;28;20448;-84
2021/05/11 01:12:00;;;;;;;1.30;0.60;;;19.10;99.90;;;;;;5008341;28;20484;-85
2021/05/11 01:14:27;;;;;;;1.63;0.40;;;19.20;99.90;;;;;;5024205;28;20385;-84
2021/05/11 01:17:00;;;;;;;2.33;0.50;;;19.30;99.90;;;;;;5004105;28;20401;-85
2021/05/11 01:19:45;;;;;;;1.10;0.60;;;19.50;99.90;;;;;;5026328;28;20454;-85
2021/05/11 01:24:48;;;;;;;2.80;0.40;;;19.60;99.90;;;;;;5026089;28;20435;-85
2021/05/11 01:30:54;;;;;;;1.35;0.40;;;19.80;99.90;;;;;;5028875;28;20417;-85
2021/05/11 01:46:52;;;;;;;0.70;0.40;;;19.80;99.90;;;;;;5029070;28;20462;-85
2021/05/11 01:49:35;;;;;;;1.02;0.47;;;19.80;99.90;;;;;;5027078;28;20472;-85
2021/05/11 02:24:08;;;;;;;0.95;0.30;;;20.20;99.90;;;;;;5032655;28;20392;-84
2021/05/11 02:26:35;;;;;;;1.15;0.40;;;20.30;99.90;;;;;;5031496;28;20389;-85
2021/05/11 02:29:02;;;;;;;2.83;0.40;;;20.20;99.90;;;;;;5032415;28;20398;-85
2021/05/11 02:31:29;;;;;;;0.80;0.30;;;20.30;99.90;;;;;;5014316;28;20947;-87
2021/05/11 02:33:56;;;;;;;1.05;0.30;;;20.20;99.90;;;;;;5032293;28;20481;-84
2021/05/11 02:36:23;;;;;;;1.60;0.40;;;20.20;99.90;;;;;;5013902;28;20382;-84
2021/05/11 02:38:50;;;;;;;0.52;0.30;;;20.30;99.90;;;;;;5013906;28;20419;-84
2021/05/11 02:41:17;;;;;;;0.70;0.30;;;20.40;99.90;;;;;;5031873;28;20946;-84
2021/05/11 02:43:45;;;;;;;1.77;0.40;;;20.30;99.90;;;;;;5031795;28;20382;-84
2021/05/11 02:46:12;;;;;;;1.65;0.38;;;20.20;99.90;;;;;;5030357;28;20477;-84
2021/05/11 02:48:39;;;;;;;0.93;0.30;;;20.20;99.90;;;;;;5013625;28;20895;-84
2021/05/11 02:51:06;;;;;;;2.23;0.67;;;20.10;99.90;;;;;;5013082;28;20451;-84
2021/05/11 02:53:32;;;;;;;1.17;0.50;;;20.10;99.90;;;;;;5030746;28;20936;-84
2021/05/11 02:55:59;;;;;;;0.97;0.60;;;20.10;99.90;;;;;;5011856;28;20399;-84
2021/05/11 02:58:27;;;;;;;0.60;0.40;;;20.20;99.90;;;;;;4993909;28;20375;-83
2021/05/11 03:00:54;;;;;;;2.90;0.40;;;20.20;99.90;;;;;;5011800;28;20425;-83
2021/05/11 03:03:21;;;;;;;2.22;0.30;;;20.20;99.90;;;;;;5011336;28;20393;-83
2021/05/11 03:05:48;;;;;;;0.80;0.50;;;20.30;99.90;;;;;;5031181;28;20381;-85
2021/05/11 03:08:15;;;;;;;2.88;0.50;;;20.20;99.90;;;;;;5031352;28;20374;-84
2021/05/11 03:10:42;;;;;;;0.60;0.30;;;20.10;99.90;;;;;;5031470;28;20377;-84
2021/05/11 03:13:09;;;;;;;1.08;0.45;;;20.00;99.90;;;;;;5031542;28;20392;-83
2021/05/11 03:15:36;;;;;;;1.33;0.38;;;20.00;99.90;;;;;;5031169;28;20522;-84
2021/05/11 03:18:03;;;;;;;1.02;0.50;;;20.10;99.90;;;;;;5017135;28;20843;-84
2021/05/11 03:20:30;;;;;;;1.35;0.40;;;20.10;99.90;;;;;;5019476;28;20447;-84
2021/05/11 03:22:57;;;;;;;1.20;0.30;;;20.00;99.90;;;;;;5011623;28;20421;-84
2021/05/11 03:25:24;;;;;;;2.20;0.35;;;20.10;99.90;;;;;;5030626;28;20729;-82
2021/05/11 03:27:51;;;;;;;0.88;0.50;;;20.20;99.90;;;;;;5023858;28;20913;-83
2021/05/11 03:30:18;;;;;;;3.30;0.60;;;20.40;99.90;;;;;;5013643;28;20465;-84
2021/05/11 03:32:45;;;;;;;1.70;0.40;;;20.40;99.90;;;;;;5031028;28;20412;-82
2021/05/11 03:35:12;;;;;;;1.17;0.40;;;20.30;99.90;;;;;;5021282;28;20470;-83
2021/05/11 03:37:39;;;;;;;1.97;0.57;;;20.20;99.90;;;;;;4994324;28;20912;-83
2021/05/11 03:40:07;;;;;;;2.30;0.60;;;20.10;99.90;;;;;;5010875;28;20394;-84
2021/05/11 03:42:38;;;;;;;1.15;0.52;;;20.10;99.90;;;;;;5011019;28;20383;-84
2021/05/11 03:45:08;;;;;;;2.10;0.60;;;20.00;99.90;;;;;;5010841;28;20376;-83
2021/05/11 03:47:54;;;;;;;1.87;0.50;;;20.10;99.90;;;;;;5010687;28;20383;-83
2021/05/11 03:50:21;;;;;;;1.77;0.45;;;20.30;99.90;;;;;;5011884;28;20391;-84
2021/05/11 03:52:48;;;;;;;1.25;0.47;;;20.30;99.90;;;;;;5028126;28;20389;-84
2021/05/11 03:55:16;;;;;;;3.27;0.70;;;20.30;99.90;;;;;;5012598;28;20389;-84
2021/05/11 03:57:43;;;;;;;2.97;0.75;;;20.30;99.90;;;;;;5030406;28;20389;-84
2021/05/11 04:00:11;;;;;;;1.17;0.40;;;20.30;99.90;;;;;;5030695;28;20381;-82
2021/05/11 04:02:38;;;;;;;2.80;0.50;;;20.20;99.90;;;;;;5012033;28;20891;-84
2021/05/11 04:05:10;;;;;;;1.15;0.68;;;20.20;99.90;;;;;;5030273;28;20381;-83
2021/05/11 04:07:39;;;;;;;1.33;0.40;;;20.10;99.90;;;;;;5012639;28;20447;-82
2021/05/11 04:10:21;;;;;;;0.88;0.28;;;20.10;99.90;;;;;;5012631;28;21203;-84
2021/05/11 04:16:32;;;;;;;1.63;0.43;;;20.10;99.90;;;;;;5030152;28;20404;-83
2021/05/11 04:18:26;;;;;;;1.20;0.30;;;19.90;99.90;;;;;;4999636;28;20395;-84
2021/05/11 04:20:53;;;;;;;0.75;0.30;;;19.70;99.90;;;;;;5010678;28;20383;-84
2021/05/11 04:23:20;;;;;;;1.77;0.60;;;19.70;99.90;;;;;;4996015;28;20837;-84
2021/05/11 04:25:47;;;;;;;2.00;0.47;;;19.60;99.90;;;;;;5030449;28;20397;-84
2021/05/11 04:28:14;;;;;;;1.17;0.32;;;19.50;99.90;;;;;;5012562;28;20475;-83
2021/05/11 04:30:41;;;;;;;1.90;0.50;;;19.60;99.90;;;;;;5012952;28;20374;-83
2021/05/11 04:33:08;;;;;;;1.17;0.40;;;19.60;99.90;;;;;;5011375;28;20378;-83
2021/05/11 04:35:35;;;;;;;3.10;0.30;;;19.60;99.90;;;;;;5029800;28;20377;-84
2021/05/11 04:38:02;;;;;;;2.53;0.40;;;19.40;99.90;;;;;;5030005;28;20797;-84
2021/05/11 04:40:29;;;;;;;3.47;0.57;;;19.50;99.90;;;;;;5028593;28;20954;-84
2021/05/11 04:42:57;;;;;;;1.83;0.32;;;19.60;99.90;;;;;;5012209;28;20528;-82
2021/05/11 04:45:26;;;;;;;1.20;0.50;;;19.70;99.90;;;;;;5010692;28;20967;-85
2021/05/11 04:47:56;;;;;;;1.45;0.20;;;19.70;99.90;;;;;;5028095;28;20907;-84
2021/05/11 04:50:25;;;;;;;1.10;0.38;;;19.80;99.90;;;;;;5010446;28;20390;-84
2021/05/11 04:52:52;;;;;;;1.23;0.40;;;19.80;99.90;;;;;;5009388;28;20512;-84
2021/05/11 04:55:20;;;;;;;1.00;0.22;;;19.80;99.90;;;;;;4992517;28;20387;-84
2021/05/11 04:57:47;;;;;;;1.88;0.40;;;19.50;99.90;;;;;;4992376;28;20791;-84
2021/05/11 05:00:16;;;;;;;0.20;0.20;;;19.30;99.90;;;;;;4996931;28;20375;-84
2021/05/11 05:02:45;;;;;;;0.40;0.35;;;18.90;99.90;;;;;;5009643;28;20478;-84
2021/05/11 05:05:14;;;;;;;1.05;0.45;;;18.90;99.90;;;;;;5010474;28;20378;-84
2021/05/11 05:07:42;;;;;;;3.45;0.40;;;18.80;99.90;;;;;;5029428;28;20417;-84
2021/05/11 05:10:12;;;;;;;2.13;0.30;;;18.70;99.90;;;;;;5011566;28;20439;-83
2021/05/11 05:12:39;;;;;;;1.38;0.50;;;18.50;99.90;;;;;;5009578;28;20428;-83
2021/05/11 05:15:07;;;;;;;1.08;0.43;;;18.40;99.90;;;;;;5029164;28;20393;-83
2021/05/11 05:17:34;;;;;;;1.08;0.40;;;18.20;99.90;;;;;;5029166;28;20381;-84
2021/05/11 05:20:01;;;;;;;1.30;0.30;;;18.30;99.90;;;;;;5011088;28;20382;-82
2021/05/11 05:22:27;;;;;;;2.20;0.30;;;18.20;99.90;;;;;;5018154;28;20391;-81
2021/05/11 05:24:57;;;;;;;2.97;0.50;;;18.20;99.90;;;;;;4991722;28;20411;-83
2021/05/11 05:27:26;;;;;;;1.10;0.40;;;18.10;99.90;;;;;;5009207;28;20787;-82
2021/05/11 05:29:54;;;;;;;2.15;0.50;;;18.10;99.90;;;;;;4994079;28;20399;-82
2021/05/11 05:32:20;;;;;;;0.93;0.38;;;18.00;99.90;;;;;;4991779;28;20453;-83
2021/05/11 05:34:48;;;;;;;0.50;0.50;;;17.90;99.90;;;;;;5010567;28;20400;-83
2021/05/11 05:37:14;;;;;;;1.38;0.30;;;17.80;99.90;;;;;;5015656;28;20466;-83
2021/05/11 05:39:44;;;;;;;1.58;0.40;;;17.70;99.90;;;;;;5014761;28;20403;-83
2021/05/11 05:42:11;;;;;;;0.65;0.40;;;17.60;99.90;;;;;;5013067;28;20409;-83
2021/05/11 05:44:38;;;;;;;1.15;0.30;;;17.50;99.90;;;;;;5027324;28;20420;-83
2021/05/11 05:47:06;;;;;;;0.77;0.30;;;17.50;99.90;;;;;;5008314;28;20404;-83
2021/05/11 05:49:41;;;;;;;1.20;0.45;;;17.50;99.90;;;;;;5014531;28;20377;-83
2021/05/11 05:52:14;;;;;;;1.92;0.32;;;17.30;99.90;;;;;;5013421;28;20466;-83
2021/05/11 05:54:41;;;;;;;2.60;0.50;;;17.30;99.90;;;;;;4995393;28;20394;-82
2021/05/11 05:57:08;;;;;;;1.05;0.40;;;17.20;99.90;;;;;;5012133;28;20418;-82
2021/05/11 05:59:39;;;;;;;3.60;0.50;;;17.20;99.90;;;;;;4995956;28;20844;-83
2021/05/11 06:02:21;;;;;;;1.92;0.68;;;17.20;99.90;;;;;;5013361;28;20456;-83
2021/05/11 06:04:48;;;;;;;1.75;0.50;;;17.10;99.90;;;;;;5013301;28;20410;-83
2021/05/11 06:07:16;;;;;;;2.70;0.53;;;17.10;99.90;;;;;;5013129;28;20431;-83
2021/05/11 06:09:44;;;;;;;1.90;0.57;;;17.10;99.90;;;;;;4995022;28;21181;-83
2021/05/11 06:12:25;;;;;;;3.45;0.70;;;17.20;99.90;;;;;;5012066;28;20437;-83
2021/05/11 06:17:38;;;;;;;2.20;0.60;;;17.00;99.90;;;;;;5033968;28;20447;-84
2021/05/11 06:20:05;;;;;;;2.35;0.52;;;17.00;99.90;;;;;;5026451;28;20399;-84
2021/05/11 06:22:32;;;;;;;1.58;0.47;;;17.00;99.90;;;;;;5016924;28;20400;-84
2021/05/11 06:25:00;;;;;;;0.77;0.57;;;17.00;99.90;;;;;;5034143;28;20377;-85
2021/05/11 06:27:27;;;;;;;1.80;0.50;;;16.90;99.90;;;;;;5041634;28;20389;-84
2021/05/11 06:29:57;;;;;;;1.05;0.63;;;16.90;99.90;;;;;;5013516;28;20390;-84
2021/05/11 06:32:24;;;;;;;0.70;0.40;;;16.80;99.90;;;;;;5026244;28;20428;-85
2021/05/11 06:34:58;;;;;;;4.72;0.70;;;16.60;99.90;;;;;;5027304;28;20387;-86
2021/05/11 06:37:25;;;;;;;3.00;0.80;;;16.60;99.90;;;;;;5004587;28;20791;-85
2021/05/11 06:39:53;;;;;;;2.45;0.50;;;16.50;99.90;;;;;;5005110;28;21179;-86
2021/05/11 06:42:22;;;;;;;1.85;0.47;;;16.50;99.90;;;;;;5005073;28;20457;-85
2021/05/11 06:52:46;;;;;;;2.28;0.80;;;16.30;99.90;;;;;;5023638;28;20380;-85
2021/05/11 06:55:16;;;;;;;1.83;1.00;;;16.20;99.90;;;;;;5029843;28;20391;-83
2021/05/11 06:57:43;;;;;;;2.42;1.20;;;16.10;99.90;;;;;;5028503;28;20383;-84
2021/05/11 07:00:11;;;;;;;2.72;1.08;;;16.20;99.90;;;;;;4999285;28;20376;-86
2021/05/11 07:02:38;;;;;;;2.30;1.10;;;16.20;99.90;;;;;;5012117;28;20403;-84
2021/05/11 07:05:05;;;;;;;4.23;1.30;;;16.10;99.90;;;;;;5012157;28;20445;-84
2021/05/11 07:07:33;;;;;;;2.13;1.00;;;16.10;99.90;;;;;;5011876;28;20383;-85
2021/05/11 07:10:20;;;;;;;3.70;1.13;;;16.10;99.90;;;;;;4993985;28;20681;-83
2021/05/11 07:15:46;;;;;;;1.67;0.80;;;15.90;99.90;;;;;;4990232;28;20403;-85
2021/05/11 07:18:18;;;;;;;1.90;0.80;;;15.90;99.90;;;;;;5014317;28;20419;-84
2021/05/11 07:20:47;;;;;;;2.50;0.70;;;15.90;99.90;;;;;;5020322;28;20388;-84
2021/05/11 07:23:20;;;;;;;1.98;0.60;;;15.80;99.90;;;;;;5010413;28;20391;-85
2021/05/11 07:26:02;;;;;;;1.60;0.80;;;15.80;99.90;;;;;;5025958;28;20370;-84
2021/05/11 07:28:44;;;;;;;2.15;0.63;;;15.80;99.90;;;;;;5026562;28;20395;-84
2021/05/11 07:31:13;;;;;;;1.98;0.70;;;15.90;99.90;;;;;;5028566;28;20350;-84
2021/05/11 07:33:44;;;;;;;1.17;0.60;;;15.90;99.90;;;;;;5013439;28;20437;-84
2021/05/11 07:36:12;;;;;;;0.80;0.55;;;15.80;99.90;;;;;;4993702;28;20376;-86
2021/05/11 07:38:39;;;;;;;3.33;0.57;;;15.80;99.90;;;;;;5010951;28;20911;-85
2021/05/11 07:41:07;;;;;;;2.75;0.57;;;15.80;99.90;;;;;;5012388;28;20395;-84
2021/05/11 07:43:40;;;;;;;1.40;0.50;;;15.70;99.90;;;;;;5014427;28;20397;-84
2021/05/11 08:15:34;;;;;;;2.60;0.70;;;15.50;99.90;;;;;;5023061;28;20416;-85
2021/05/11 08:28:32;;;;;;;3.75;2.35;;;15.70;99.90;;;;;;5014191;28;20402;-88
2021/05/11 08:30:59;;;;;;;3.70;2.72;;;15.60;99.90;;;;;;5015854;28;20447;-87
2021/05/11 08:33:26;;;;;;;2.97;2.03;;;15.50;99.90;;;;;;5012704;28;20385;-85
2021/05/11 08:35:53;;;;;;;5.90;2.40;;;15.30;99.90;;;;;;5010872;28;20751;-85
2021/05/11 08:38:20;;;;;;;5.53;2.38;;;15.30;99.90;;;;;;5026252;28;20386;-87
2021/05/11 08:40:47;;;;;;;3.83;2.20;;;15.20;99.90;;;;;;5023717;28;20405;-86
2021/05/11 08:43:34;;;;;;;3.95;2.90;;;15.20;99.90;;;;;;5024611;28;20932;-86
2021/05/11 08:46:06;;;;;;;2.78;2.08;;;15.00;99.90;;;;;;5028175;28;20439;-87
2021/05/11 08:48:34;;;;;;;4.85;2.17;;;14.90;99.90;;;;;;5024994;28;20700;-88
2021/05/11 09:00:13;;;;;;;5.00;2.80;;;14.80;99.90;;;;;;5025645;28;20372;-86
2021/05/11 09:14:54;;;;;;;2.97;1.40;;;15.00;99.90;;;;;;5030957;28;20452;-89
2021/05/11 09:25:31;;;;;;;4.82;2.30;;;14.80;99.90;;;;;;5001536;28;20474;-88
2021/05/11 09:28:04;;;;;;;4.63;2.20;;;14.80;99.90;;;;;;4987507;28;20402;-86
2021/05/11 09:31:02;;;;;;;3.97;1.73;;;14.90;99.90;;;;;;5013377;28;20406;-86
2021/05/11 09:33:34;;;;;;;2.47;1.10;;;14.90;99.90;;;;;;5010168;28;20403;-87
2021/05/11 10:39:19;;;;;;;4.65;2.55;;;15.10;99.90;;;;;;5016181;28;20385;-89
2021/05/11 10:42:22;;;;;;;9.30;2.80;;;15.10;99.90;;;;;;5014604;28;20764;-88
2021/05/11 10:48:22;;;;;;;5.72;2.25;;;15.10;99.90;;;;;;5025277;28;20382;-89
2021/05/11 10:50:54;;;;;;;5.53;2.10;;;15.00;99.90;;;;;;5016356;28;20386;-88
2021/05/11 10:53:45;;;;;;;5.63;2.42;;;15.00;99.90;;;;;;5016413;28;20389;-87
2021/05/11 10:56:30;;;;;;;5.72;2.50;;;14.90;99.90;;;;;;5034061;28;20374;-89
2021/05/11 10:59:12;;;;;;;6.05;2.40;;;14.80;99.90;;;;;;5033882;28;21175;-89
2021/05/11 11:01:43;;;;;;;6.60;2.33;;;14.80;99.90;;;;;;5034823;28;20811;-86
2021/05/11 11:04:20;;;;;;;4.83;2.60;;;14.80;99.90;;;;;;5032517;28;20498;-91
2021/05/11 11:06:59;;;;;;;5.05;2.20;;;14.70;99.90;;;;;;5025529;28;20397;-91
2021/05/11 11:09:31;;;;;;;5.82;2.55;;;14.70;99.90;;;;;;5018593;28;20385;-89
2021/05/11 11:11:59;;;;;;;5.43;2.20;;;14.70;99.90;;;;;;5034414;28;20378;-92
2021/05/11 11:14:34;;;;;;;5.57;2.42;;;14.70;99.90;;;;;;5014351;28;20405;-89
2021/05/11 11:17:02;;;;;;;5.78;2.60;;;14.70;99.90;;;;;;5010354;28;20824;-91
2021/05/11 11:19:30;;;;;;;6.10;2.63;;;14.60;99.90;;;;;;5016150;28;20451;-91
2021/05/11 11:24:38;;;;;;;5.97;2.40;;;14.50;99.90;;;;;;5034910;28;20374;-91
2021/05/11 11:27:05;;;;;;;7.60;2.87;;;14.50;99.90;;;;;;5034341;28;20397;-88
2021/05/11 11:29:32;;;;;;;6.47;2.93;;;14.40;99.90;;;;;;5016071;28;20445;-88
2021/05/11 11:31:59;;;;;;;7.63;3.20;;;14.30;99.90;;;;;;5030815;28;20393;-89
2021/05/11 11:34:39;;;;;;;6.22;3.40;;;14.30;99.90;;;;;;5022032;28;20401;-91
2021/05/11 11:37:11;;;;;;;7.80;3.05;;;14.20;99.90;;;;;;5030400;28;20369;-89
2021/05/11 11:39:46;;;;;;;6.15;3.10;;;14.20;99.90;;;;;;5033962;28;20517;-89
2021/05/11 11:42:28;;;;;;;4.30;2.80;;;14.10;99.90;;;;;;5044494;28;20463;-89
2021/05/11 11:45:00;;;;;;;5.68;2.80;;;14.10;99.90;;;;;;5032327;28;20960;-91
2021/05/11 11:47:29;;;;;;;7.75;2.78;;;14.10;99.90;;;;;;5024180;28;20417;-91
2021/05/11 11:50:03;;;;;;;7.65;2.83;;;14.10;99.90;;;;;;5031161;28;20393;-91
2021/05/11 11:55:22;;;;;;;5.72;3.13;;;13.90;99.90;;;;;;5026503;28;20417;-91
2021/05/11 11:57:55;;;;;;;5.20;2.45;;;13.90;99.90;;;;;;5011819;28;20403;-91
2021/05/11 12:00:28;;;;;;;5.65;2.65;;;13.80;99.90;;;;;;5018327;28;20375;-91
2021/05/11 12:03:01;;;;;;;6.85;2.50;;;13.80;99.90;;;;;;5017963;28;20383;-90
2021/05/11 12:05:33;;;;;;;4.35;2.17;;;13.90;99.90;;;;;;5003144;28;20375;-90
2021/05/11 12:08:22;;;;;;;6.55;2.13;;;13.90;99.90;;;;;;5005116;28;20391;-91
2021/05/11 12:10:51;;;;;;;5.70;2.35;;;14.00;99.90;;;;;;5021888;28;20786;-94
2021/05/11 12:13:24;;;;;;;4.30;2.22;;;14.00;99.90;;;;;;5001063;28;20566;-92
2021/05/11 12:16:15;;;;;;;6.78;2.20;;;14.00;99.90;;;;;;5003033;28;20410;-92
2021/05/11 12:19:12;;;;;;;5.22;2.20;;;14.00;99.90;;;;;;5026153;28;20387;-91
2021/05/11 12:22:06;;;;;;;7.10;2.25;;;14.00;99.90;;;;;;5015106;28;20413;-91
2021/05/11 12:24:42;;;;;;;3.88;2.10;;;14.10;99.90;;;;;;5017007;28;20405;-93
2021/05/11 12:27:13;;;;;;;7.15;2.40;;;14.10;99.90;;;;;;5018476;28;20416;-93
2021/05/11 12:29:59;;;;;;;5.83;1.80;;;14.10;99.90;;;;;;5016445;28;20406;-93
2021/05/11 12:32:26;;;;;;;6.30;2.00;;;14.10;99.90;;;;;;5025774;28;20719;-88
2021/05/11 12:35:14;;;;;;;4.35;1.80;;;14.00;99.90;;;;;;5000004;28;20407;-87
2021/05/11 12:37:45;;;;;;;6.40;2.10;;;13.90;99.90;;;;;;5022233;28;20416;-87
2021/05/11 12:40:25;;;;;;;6.15;1.95;;;13.90;99.90;;;;;;5011940;28;20379;-87
2021/05/11 12:42:55;;;;;;;4.80;2.00;;;13.90;99.90;;;;;;5011077;28;20405;-87
2021/05/11 12:45:22;;;;;;;4.15;1.98;;;13.80;99.90;;;;;;5031628;28;20382;-90
2021/05/11 12:48:00;;;;;;;6.18;2.00;;;13.80;99.90;;;;;;5029975;28;20395;-90
2021/05/11 12:50:37;;;;;;;7.07;3.10;;;13.70;99.90;;;;;;5026996;28;20742;-88
2021/05/11 13:01:25;;;;;;;6.60;2.75;;;13.60;99.90;;;;;;5031977;28;20826;-93
2021/05/11 13:26:24;;;;;;;4.68;2.33;;;13.80;99.90;;;;;;5033819;28;20360;-91
2021/05/11 13:29:38;;;;;;;4.43;2.00;;;13.80;99.90;;;;;;5034510;28;20413;-91
2021/05/11 13:31:46;;;;;;;4.97;2.50;;;13.80;99.90;;;;;;5020431;28;20395;-90
2021/05/11 13:34:13;;;;;;;5.45;2.33;;;13.70;99.90;;;;;;5037180;28;21286;-90
2021/05/11 13:36:41;;;;;;;5.97;2.30;;;13.60;99.90;;;;;;5038528;28;20476;-91
2021/05/11 13:39:10;;;;;;;7.57;2.28;;;13.50;99.90;;;;;;5021700;28;20385;-91
2021/05/11 13:41:37;;;;;;;5.15;2.22;;;13.50;99.90;;;;;;5039105;28;20405;-91
2021/05/11 13:44:04;;;;;;;6.35;2.08;;;13.40;99.90;;;;;;5022275;28;20452;-90
2021/05/11 13:46:32;;;;;;;7.60;2.40;;;13.40;99.90;;;;;;5027732;28;20399;-90
2021/05/11 13:48:59;;;;;;;4.85;1.80;;;13.40;99.90;;;;;;5028279;28;20396;-90
2021/05/11 13:51:26;;;;;;;6.78;1.75;;;13.40;99.90;;;;;;5019965;28;20394;-90
2021/05/11 13:53:57;;;;;;;5.30;1.70;;;13.40;99.90;;;;;;5034020;28;20398;-91
2021/05/11 14:04:29;;;;;;;5.53;2.15;;;13.50;99.90;;;;;;5028038;28;20907;-88
2021/05/11 14:06:57;;;;;;;6.20;2.33;;;13.50;99.90;;;;;;5040004;28;20401;-88
2021/05/11 14:09:24;;;;;;;5.43;2.35;;;13.50;99.90;;;;;;5027915;28;20422;-89
2021/05/11 14:11:51;;;;;;;6.17;2.20;;;13.50;99.90;;;;;;5043650;28;20449;-90
2021/05/11 14:14:18;;;;;;;3.88;1.90;;;13.50;99.90;;;;;;5029698;28;20391;-90
2021/05/11 14:16:47;;;;;;;5.93;1.85;;;13.40;99.90;;;;;;5042079;28;20454;-90
2021/05/11 14:19:14;;;;;;;4.00;2.00;;;13.50;99.90;;;;;;5019880;28;20408;-90
2021/05/11 14:21:42;;;;;;;4.90;2.50;;;13.40;99.90;;;;;;5043300;28;20405;-90
2021/05/11 14:24:09;;;;;;;7.85;2.22;;;13.40;99.90;;;;;;5037924;28;20393;-91
2021/05/11 14:26:37;;;;;;;6.57;1.77;;;13.40;99.90;;;;;;5025648;28;20412;-91
2021/05/11 14:29:04;;;;;;;4.40;1.60;;;13.50;99.90;;;;;;5029690;28;20454;-90
2021/05/11 14:31:32;;;;;;;4.28;1.98;;;13.50;99.90;;;;;;5032298;28;20397;-90
2021/05/11 14:34:00;;;;;;;3.55;1.45;;;13.50;99.90;;;;;;5038622;28;20391;-90
2021/05/11 14:36:27;;;;;;;5.05;1.85;;;13.40;99.90;;;;;;5036101;28;20453;-91
2021/05/11 14:38:53;;;;;;;6.70;1.88;;;13.40;99.90;;;;;;5012729;28;20393;-90
2021/05/11 14:41:21;;;;;;;5.47;1.60;;;13.30;99.90;;;;;;5022606;28;20431;-91
2021/05/11 14:43:48;;;;;;;3.72;1.48;;;13.30;99.90;;;;;;5020167;28;20407;-90
2021/05/11 14:46:15;;;;;;;3.67;2.05;;;13.30;99.90;;;;;;5021975;28;20486;-91
2021/05/11 14:48:42;;;;;;;4.13;1.52;;;13.40;99.90;;;;;;5040609;28;20377;-91
2021/05/11 14:51:10;;;;;;;4.70;1.75;;;13.40;99.90;;;;;;5040082;28;20458;-91
2021/05/11 14:53:38;;;;;;;4.57;1.60;;;13.40;99.90;;;;;;5041490;28;20949;-90
2021/05/11 14:56:08;;;;;;;5.60;1.77;;;13.40;99.90;;;;;;5041799;28;20374;-90
2021/05/11 14:58:35;;;;;;;4.30;1.60;;;13.50;99.90;;;;;;5040274;28;20872;-90
2021/05/11 15:01:03;;;;;;;7.50;1.88;;;13.50;99.90;;;;;;5032460;28;20401;-91
2021/05/11 15:03:30;;;;;;;3.42;1.25;;;13.50;99.90;;;;;;5040739;28;20396;-90
2021/05/11 15:05:57;;;;;;;3.53;1.50;;;13.50;99.90;;;;;;5038565;28;20389;-90
2021/05/11 15:08:24;;;;;;;4.28;1.45;;;13.50;99.90;;;;;;5031545;28;20481;-91
2021/05/11 15:10:51;;;;;;;8.73;1.42;;;13.50;99.90;;;;;;5022538;28;20478;-90
2021/05/11 15:13:19;;;;;;;4.03;1.05;;;13.50;99.90;;;;;;5026387;28;20406;-90
2021/05/11 15:15:51;;;;;;;3.38;0.98;;;13.40;99.90;;;;;;5038966;28;20389;-90
2021/05/11 15:18:19;;;;;;;2.17;0.93;;;13.40;99.90;;;;;;5010300;28;20401;-90
2021/05/11 15:20:46;;;;;;;2.03;0.93;;;13.40;99.90;;;;;;5038984;28;20388;-90
2021/05/11 15:23:13;;;;;;;3.35;1.00;;;13.30;99.90;;;;;;5012080;28;20405;-92
2021/05/11 15:25:40;;;;;;;3.33;1.17;;;13.20;99.90;;;;;;5038151;28;20382;-91
2021/05/11 15:28:08;;;;;;;4.05;0.98;;;13.20;99.90;;;;;;5032853;28;20395;-92
2021/05/11 15:30:35;;;;;;;2.58;0.95;;;13.20;99.90;;;;;;5020082;28;20463;-92
2021/05/11 15:33:04;;;;;;;3.03;1.00;;;13.20;99.90;;;;;;5012002;28;20393;-90
2021/05/11 15:35:33;;;;;;;2.13;0.90;;;13.10;99.90;;;;;;5035650;28;20378;-94
2021/05/11 15:38:03;;;;;;;3.40;1.20;;;13.20;99.90;;;;;;5017948;28;20406;-91
2021/05/11 15:40:35;;;;;;;4.07;1.07;;;13.20;99.90;;;;;;5032645;28;20393;-92
2021/05/11 15:43:03;;;;;;;6.05;1.10;;;13.30;99.90;;;;;;5033679;28;20403;-92
2021/05/11 15:45:31;;;;;;;2.67;1.00;;;13.30;99.90;;;;;;5034165;28;20385;-90
2021/05/11 15:48:03;;;;;;;3.13;1.02;;;13.30;99.90;;;;;;5030447;28;21030;-91
2021/05/11 15:50:35;;;;;;;4.83;0.90;;;13.30;99.90;;;;;;5033626;28;20402;-92
2021/05/11 15:53:05;;;;;;;1.85;0.70;;;13.40;99.90;;;;;;5012836;28;20459;-91
2021/05/11 15:55:34;;;;;;;2.65;0.90;;;13.40;99.90;;;;;;5034331;28;20405;-90
2021/05/11 15:58:02;;;;;;;1.40;0.60;;;13.40;99.90;;;;;;5031583;28;20401;-91
2021/05/11 16:00:29;;;;;;;2.47;0.80;;;13.40;99.90;;;;;;5033754;28;21024;-91
2021/05/11 16:02:58;;;;;;;4.37;0.90;;;13.30;99.90;;;;;;5014945;28;21014;-90
2021/05/11 16:05:26;;;;;;;2.67;0.77;;;13.30;99.90;;;;;;5006353;28;20476;-90
2021/05/11 16:07:53;;;;;;;2.10;0.80;;;13.30;99.90;;;;;;5012831;28;20401;-91
2021/05/11 16:10:20;;;;;;;1.83;0.63;;;13.30;99.90;;;;;;5031874;28;20461;-91
2021/05/11 16:12:47;;;;;;;2.45;0.70;;;13.30;99.90;;;;;;5028223;28;20432;-90
2021/05/11 16:15:22;;;;;;;1.77;0.85;;;13.30;99.90;;;;;;5010769;28;20427;-91
2021/05/11 16:17:49;;;;;;;1.63;0.60;;;13.30;99.90;;;;;;5029561;28;20459;-92
2021/05/11 16:20:17;;;;;;;0.87;0.63;;;13.30;99.90;;;;;;5030857;28;20397;-89
2021/05/11 16:22:44;;;;;;;2.00;0.70;;;13.30;99.90;;;;;;5030471;28;20401;-91
2021/05/11 16:25:13;;;;;;;0.90;0.53;;;13.30;99.90;;;;;;5030877;28;20420;-90
2021/05/11 16:27:41;;;;;;;1.17;0.80;;;13.20;99.90;;;;;;5027430;28;20963;-91
2021/05/11 16:30:12;;;;;;;1.42;0.82;;;13.20;99.90;;;;;;5028764;28;20425;-91
2021/05/11 16:32:39;;;;;;;2.30;0.70;;;13.20;99.90;;;;;;5029349;28;20401;-91
2021/05/11 16:35:08;;;;;;;1.75;0.70;;;13.10;99.90;;;;;;5011993;28;20750;-92
2021/05/11 16:37:35;;;;;;;1.23;0.50;;;13.00;99.90;;;;;;5031947;28;20415;-91
2021/05/11 16:40:04;;;;;;;1.85;0.68;;;13.10;99.90;;;;;;5032754;28;20373;-90
2021/05/11 16:42:30;;;;;;;2.33;0.63;;;13.10;99.90;;;;;;5030129;28;20409;-90
2021/05/11 16:44:57;;;;;;;1.38;0.50;;;13.10;99.90;;;;;;5029047;28;20507;-90
2021/05/11 16:47:24;;;;;;;3.38;0.70;;;13.10;99.90;;;;;;5011727;28;20436;-91
2021/05/11 16:49:51;;;;;;;1.98;0.70;;;13.10;99.90;;;;;;5028214;28;20389;-91
2021/05/11 16:52:20;;;;;;;1.30;0.60;;;13.10;99.90;;;;;;5010351;28;20401;-91
2021/05/11 16:54:46;;;;;;;2.25;0.60;;;13.00;99.90;;;;;;5024918;28;20421;-91
2021/05/11 16:57:13;;;;;;;2.83;0.80;;;13.00;99.90;;;;;;5023504;28;20409;-92
2021/05/11 16:59:40;;;;;;;2.10;0.73;;;13.00;99.90;;;;;;5027570;28;20404;-90
2021/05/11 17:02:08;;;;;;;1.70;0.70;;;13.00;99.90;;;;;;5013362;28;20501;-91
2021/05/11 17:04:35;;;;;;;1.30;0.70;;;13.00;99.90;;;;;;5025494;28;20424;-91
2021/05/11 17:07:02;;;;;;;3.35;0.90;;;12.90;99.90;;;;;;5025902;28;20397;-91
2021/05/11 17:09:30;;;;;;;0.80;0.70;;;12.80;99.90;;;;;;5025270;28;20970;-91